Baltimore/Washington International Thurgood Marshal Airport
KBWI : now visible

Airfield :











YOU CAN JOIN US ON...

 
LOGIN :

Register | Disclaimer

   EN    FR    IT 

 









Legend :    VFR   Marginal VFR   IFR   Intensive IFR   Very Intensive IFR
Visi :
Ceiling :
>= 8 km
>= 3000ft
5 to 8 km
1000 to 3000 ft
1500m to 5 km
500 to 1000 ft
800 to 1500m
200 to 500 ft
< 800m
< 200 ft
Symbols :   Thunderstorms  Fog  Heavy snow  Heavy precipitations  Wind > 20 kt






- Airport Elevation : 146 ft
- IATA code : BWI


KBWI - Baltimore/Washington International Thurgood Marshal

CURRENT METAR :
  • 101124Z 07007KT 1/2SM R10/3500V5500FT -DZ FG OVC003 12/11 A3001 RMK AO2 P0000 T01220111

EXPIRED METARs :
  • 101054Z 07004KT 1SM R10/P6000FT -DZ BR OVC003 12/11 A3001 RMK AO2 SLP163 P0000 T01220111
  • 100954Z 07008KT 1 1/2SM -DZ BR OVC002 12/11 A3001 RMK AO2 SLP160 P0000 T01220111
  • 100932Z 04005KT 2 1/2SM -DZ BR OVC003 12/11 A3001 RMK AO2 P0000 T01170111
  • 100854Z 04005KT 1 1/4SM -DZ BR OVC003 12/11 A3002 RMK AO2 SLP164 P0000 60001 T01220111 58009

TAF KBWI
Valid from the 10 at 08:00 until the 11 at 12:00 UTC


100833Z 1008/1112 07005KT 2SM -DZ BR OVC003
FM101100 07004KT 1/2SM FG OVC003
FM101500 11004KT 6SM BR OVC008
FM101700 14005KT P6SM OVC025
FM102000 13006KT P6SM OVC035
FM110700 12006KT 6SM -SHRA OVC025
KZDC FIR / North America



MET'MAP, your aeronautical weather chart ! - Copyright ORBIFLY December 2007 - Disclaimer

ORBIFLY MET'MAP TEAM :

Programming & Development : Alexandra Zaïnal
Concept & original design : Baudouin d'Aumeries
Assistance for programming : Marc-Olivier Méhu
Technical & hardware support : Manuel Goepfert

Contact : metmap@orbifly.com




SOURCES & CREDITS :

   NOAA       Earth
Advisory